Time;durP1;ratioP1;P1;durP2;ratioP2;P2;SDS_P1;SDS_P2;PMS_P1;PMS_P2;Temp;Humidity;BMP_temperature;BMP_pressure;BME280_temperature;BME280_humidity;BME280_pressure;Samples;Min_cycle;Max_cycle;Signal;HPM_P1;HPM_P2
2023/07/08 00:02:11;;;;;;;8.02;4.68;;;;;;;;;;5064977;28;20202;-40
2023/07/08 00:04:41;;;;;;;6.70;5.05;;;;;;;;;;5068086;28;20214;-35
2023/07/08 00:07:12;;;;;;;7.15;4.78;;;;;;;;;;5072176;28;20203;-37
2023/07/08 00:09:39;;;;;;;6.43;4.72;;;;;;;;;;5065058;28;20314;-38
2023/07/08 00:12:10;;;;;;;6.22;4.65;;;;;;;;;;5066032;28;20202;-41
2023/07/08 00:14:38;;;;;;;5.22;4.43;;;;;;;;;;5070573;28;20233;-40
2023/07/08 00:17:10;;;;;;;6.88;5.07;;;;;;;;;;5071700;28;20208;-40
2023/07/08 00:19:37;;;;;;;6.25;4.90;;;;;;;;;;5063087;28;20595;-35
2023/07/08 00:22:09;;;;;;;7.47;4.72;;;;;;;;;;5071778;28;20233;-37
2023/07/08 00:24:36;;;;;;;6.65;4.65;;;;;;;;;;5066058;28;20249;-38
2023/07/08 00:27:03;;;;;;;6.78;5.18;;;;;;;;;;5061647;28;20206;-39
2023/07/08 00:29:30;;;;;;;7.00;5.15;;;;;;;;;;5071076;28;20221;-39
2023/07/08 00:31:59;;;;;;;7.68;4.93;;;;;;;;;;5071531;28;20213;-37
2023/07/08 00:34:26;;;;;;;8.05;5.30;;;;;;;;;;5061986;28;20232;-33
2023/07/08 00:36:53;;;;;;;5.80;4.63;;;;;;;;;;5070605;28;20207;-34
2023/07/08 00:39:20;;;;;;;8.07;5.30;;;;;;;;;;5066250;28;20246;-34
2023/07/08 00:41:47;;;;;;;7.65;5.05;;;;;;;;;;5058015;28;20206;-38
2023/07/08 00:44:14;;;;;;;6.43;4.75;;;;;;;;;;5071196;28;20194;-37
2023/07/08 00:46:50;;;;;;;7.32;5.13;;;;;;;;;;5070449;28;20241;-35
2023/07/08 00:49:25;;;;;;;5.40;4.40;;;;;;;;;;5062831;28;20577;-35
2023/07/08 00:51:52;;;;;;;5.47;4.50;;;;;;;;;;5070715;28;20212;-36
2023/07/08 00:54:20;;;;;;;8.80;5.00;;;;;;;;;;5069732;28;20573;-36
2023/07/08 00:56:49;;;;;;;12.50;5.07;;;;;;;;;;5061516;28;20212;-37
2023/07/08 00:59:19;;;;;;;7.00;4.70;;;;;;;;;;5070242;28;20228;-32
2023/07/08 01:01:47;;;;;;;7.22;4.63;;;;;;;;;;5057362;28;20288;-36
2023/07/08 01:04:16;;;;;;;6.13;4.53;;;;;;;;;;5066208;28;20202;-41
2023/07/08 01:06:47;;;;;;;5.50;4.78;;;;;;;;;;5070142;28;20198;-38
2023/07/08 01:09:15;;;;;;;7.35;4.78;;;;;;;;;;5063928;28;20222;-36
2023/07/08 01:11:43;;;;;;;5.93;4.43;;;;;;;;;;5065625;28;20236;-37
2023/07/08 01:14:12;;;;;;;6.28;4.78;;;;;;;;;;5070799;28;20217;-41
2023/07/08 01:16:39;;;;;;;5.85;4.63;;;;;;;;;;5070440;28;20296;-37
2023/07/08 01:19:10;;;;;;;7.18;4.72;;;;;;;;;;5064048;28;20304;-37
2023/07/08 01:21:38;;;;;;;6.45;4.63;;;;;;;;;;5068582;28;20213;-36
2023/07/08 01:24:09;;;;;;;7.53;4.85;;;;;;;;;;5069803;28;20224;-37
2023/07/08 01:26:37;;;;;;;6.43;4.53;;;;;;;;;;5062663;28;20221;-38
2023/07/08 01:29:04;;;;;;;8.65;5.13;;;;;;;;;;5071030;28;20227;-33
2023/07/08 01:31:32;;;;;;;5.32;4.20;;;;;;;;;;5070293;28;20205;-40
2023/07/08 01:33:59;;;;;;;6.50;4.28;;;;;;;;;;5068798;28;20198;-33
2023/07/08 01:36:27;;;;;;;6.95;4.65;;;;;;;;;;5069019;28;20225;-34
2023/07/08 01:38:55;;;;;;;5.90;4.45;;;;;;;;;;5070388;28;20247;-39
2023/07/08 01:41:23;;;;;;;7.10;4.72;;;;;;;;;;5062585;28;20674;-35
2023/07/08 01:43:50;;;;;;;6.72;4.53;;;;;;;;;;5070854;28;20204;-34
2023/07/08 01:46:19;;;;;;;5.82;4.65;;;;;;;;;;5072182;28;20663;-37
2023/07/08 01:48:49;;;;;;;6.85;4.93;;;;;;;;;;5064970;28;20233;-37
2023/07/08 01:51:17;;;;;;;6.88;4.78;;;;;;;;;;5069380;28;20201;-36
2023/07/08 01:53:45;;;;;;;7.85;5.10;;;;;;;;;;5070746;28;20208;-35
2023/07/08 01:56:13;;;;;;;7.43;4.63;;;;;;;;;;5059140;28;20229;-40
2023/07/08 01:58:42;;;;;;;6.88;4.35;;;;;;;;;;5066332;28;20221;-41
2023/07/08 02:01:09;;;;;;;5.15;4.30;;;;;;;;;;5069898;28;20203;-34
2023/07/08 02:03:36;;;;;;;6.47;4.93;;;;;;;;;;5057640;28;20211;-33
2023/07/08 02:06:04;;;;;;;5.70;4.28;;;;;;;;;;5067810;28;20197;-39
2023/07/08 02:08:31;;;;;;;8.73;4.35;;;;;;;;;;5069660;28;20225;-33
2023/07/08 02:10:59;;;;;;;6.15;4.88;;;;;;;;;;5063491;28;20193;-38
2023/07/08 02:13:27;;;;;;;6.15;4.53;;;;;;;;;;5070779;28;20201;-42
2023/07/08 02:15:55;;;;;;;7.53;4.70;;;;;;;;;;5074063;28;20218;-41
2023/07/08 02:18:23;;;;;;;6.13;4.55;;;;;;;;;;5066522;28;20221;-32
2023/07/08 02:20:50;;;;;;;8.25;5.07;;;;;;;;;;5073029;28;20277;-35
2023/07/08 02:23:17;;;;;;;5.85;4.50;;;;;;;;;;5074014;28;20198;-39
2023/07/08 02:25:51;;;;;;;6.63;4.55;;;;;;;;;;5066794;28;20202;-37
2023/07/08 02:28:19;;;;;;;7.03;4.43;;;;;;;;;;5071835;28;20589;-35
2023/07/08 02:30:46;;;;;;;6.35;4.85;;;;;;;;;;5073439;28;20202;-37
2023/07/08 02:33:17;;;;;;;6.68;4.68;;;;;;;;;;5068323;28;20210;-36
2023/07/08 02:35:44;;;;;;;5.88;4.22;;;;;;;;;;5070721;28;20235;-35
2023/07/08 02:38:11;;;;;;;6.55;4.47;;;;;;;;;;5072677;28;20221;-38
2023/07/08 02:40:38;;;;;;;5.68;4.25;;;;;;;;;;5065411;28;20213;-35
2023/07/08 02:43:05;;;;;;;5.80;4.57;;;;;;;;;;5073104;28;20208;-34
2023/07/08 02:45:32;;;;;;;5.13;4.20;;;;;;;;;;5072799;28;20204;-37
2023/07/08 02:47:59;;;;;;;6.00;4.47;;;;;;;;;;5072551;28;20225;-32
2023/07/08 02:50:28;;;;;;;6.97;4.40;;;;;;;;;;5062954;28;20202;-42
2023/07/08 02:52:55;;;;;;;5.43;4.50;;;;;;;;;;5066417;28;20216;-35
2023/07/08 02:55:22;;;;;;;7.07;4.72;;;;;;;;;;5062801;28;20229;-36
2023/07/08 02:57:49;;;;;;;6.60;4.70;;;;;;;;;;5069579;28;20312;-38
2023/07/08 03:00:16;;;;;;;6.00;4.75;;;;;;;;;;5072987;28;20201;-38
2023/07/08 03:02:43;;;;;;;8.00;4.50;;;;;;;;;;5064080;28;20270;-35
2023/07/08 03:05:11;;;;;;;7.47;4.93;;;;;;;;;;5059845;28;20197;-36
2023/07/08 03:07:39;;;;;;;5.28;4.05;;;;;;;;;;5071769;28;20201;-36
2023/07/08 03:10:06;;;;;;;6.72;4.85;;;;;;;;;;5063661;28;20202;-39
2023/07/08 03:12:33;;;;;;;7.50;4.30;;;;;;;;;;5068618;28;20412;-39
2023/07/08 03:15:00;;;;;;;7.45;4.60;;;;;;;;;;5072653;28;20217;-37
2023/07/08 03:17:28;;;;;;;6.45;4.50;;;;;;;;;;5069631;28;20205;-38
2023/07/08 03:19:55;;;;;;;5.82;4.50;;;;;;;;;;5067681;28;20225;-33
2023/07/08 03:22:22;;;;;;;6.50;4.30;;;;;;;;;;5072077;28;20734;-36
2023/07/08 03:24:51;;;;;;;5.93;4.57;;;;;;;;;;5068687;28;20198;-36
2023/07/08 03:27:18;;;;;;;5.47;4.40;;;;;;;;;;5068066;28;20205;-36
2023/07/08 03:29:45;;;;;;;7.77;5.03;;;;;;;;;;5072182;28;20219;-39
2023/07/08 03:32:13;;;;;;;5.53;4.13;;;;;;;;;;5072587;28;20204;-35
2023/07/08 03:34:40;;;;;;;6.77;5.07;;;;;;;;;;5067394;28;20197;-34
2023/07/08 03:37:07;;;;;;;7.20;4.90;;;;;;;;;;5070909;28;20225;-33
2023/07/08 03:39:34;;;;;;;8.00;4.40;;;;;;;;;;5065018;28;20236;-35
2023/07/08 03:42:03;;;;;;;6.95;4.25;;;;;;;;;;5148185;23;21405;-31
2023/07/08 03:44:30;;;;;;;6.93;4.63;;;;;;;;;;5032500;28;20670;-25
2023/07/08 03:46:57;;;;;;;7.15;4.53;;;;;;;;;;5031668;28;20652;-28
2023/07/08 03:49:25;;;;;;;7.30;5.10;;;;;;;;;;5017903;28;20230;-28
2023/07/08 03:51:53;;;;;;;5.25;4.22;;;;;;;;;;5030692;28;20221;-29
2023/07/08 03:54:22;;;;;;;6.80;4.53;;;;;;;;;;5029291;28;20214;-25
2023/07/08 03:56:49;;;;;;;5.53;3.97;;;;;;;;;;5018393;28;20227;-27
2023/07/08 03:59:19;;;;;;;7.20;4.67;;;;;;;;;;5032277;28;20219;-28
2023/07/08 04:01:46;;;;;;;5.80;4.57;;;;;;;;;;5033686;28;20214;-27
2023/07/08 04:04:14;;;;;;;6.32;4.85;;;;;;;;;;5031317;28;20253;-28
2023/07/08 04:06:41;;;;;;;6.60;5.10;;;;;;;;;;5032251;28;20215;-28
2023/07/08 04:09:08;;;;;;;6.88;4.68;;;;;;;;;;5029389;28;20269;-29
2023/07/08 04:11:36;;;;;;;5.97;4.40;;;;;;;;;;5022718;28;20230;-30
2023/07/08 04:14:03;;;;;;;8.83;5.13;;;;;;;;;;5031715;28;20198;-28
2023/07/08 04:16:32;;;;;;;5.53;4.30;;;;;;;;;;5030882;28;20226;-29
2023/07/08 04:18:59;;;;;;;5.97;4.18;;;;;;;;;;5028267;28;20233;-28
2023/07/08 04:21:26;;;;;;;8.23;5.20;;;;;;;;;;5022858;28;20219;-29
2023/07/08 04:23:54;;;;;;;5.93;4.30;;;;;;;;;;5031435;28;20230;-29
2023/07/08 04:26:21;;;;;;;5.63;4.20;;;;;;;;;;5024319;28;20293;-26
2023/07/08 04:28:48;;;;;;;9.60;4.93;;;;;;;;;;5030835;28;20230;-26
2023/07/08 04:31:15;;;;;;;7.67;5.13;;;;;;;;;;5031309;28;20206;-31
2023/07/08 04:33:43;;;;;;;6.47;4.60;;;;;;;;;;5019807;28;20217;-26
2023/07/08 04:36:13;;;;;;;6.40;4.57;;;;;;;;;;5030481;28;20706;-25
2023/07/08 04:38:41;;;;;;;6.13;4.73;;;;;;;;;;5031350;28;20227;-30
2023/07/08 04:41:08;;;;;;;5.80;4.63;;;;;;;;;;5022829;28;20234;-28
2023/07/08 04:43:35;;;;;;;8.25;4.60;;;;;;;;;;5061270;28;20220;-28
2023/07/08 04:46:03;;;;;;;5.30;4.30;;;;;;;;;;5051872;28;20201;-28
2023/07/08 04:48:32;;;;;;;5.32;4.28;;;;;;;;;;5070451;28;20221;-30
2023/07/08 04:51:01;;;;;;;6.87;4.63;;;;;;;;;;5066006;28;20250;-29
2023/07/08 04:53:28;;;;;;;6.72;5.00;;;;;;;;;;5065953;28;20208;-27
2023/07/08 04:55:57;;;;;;;7.55;4.32;;;;;;;;;;5057072;28;20232;-28
2023/07/08 04:58:24;;;;;;;7.40;4.40;;;;;;;;;;5069834;28;20229;-28
2023/07/08 05:00:51;;;;;;;7.32;4.65;;;;;;;;;;5070867;28;20204;-29
2023/07/08 05:03:18;;;;;;;5.40;4.30;;;;;;;;;;5071086;28;20243;-30
2023/07/08 05:05:46;;;;;;;10.10;4.70;;;;;;;;;;5064516;28;20208;-30
2023/07/08 05:08:14;;;;;;;6.13;4.90;;;;;;;;;;5066033;28;20232;-29
2023/07/08 05:10:42;;;;;;;7.25;4.80;;;;;;;;;;5054056;28;20212;-27
2023/07/08 05:13:09;;;;;;;6.47;4.85;;;;;;;;;;5068576;28;20201;-27
2023/07/08 05:15:36;;;;;;;6.80;4.40;;;;;;;;;;5070350;28;20221;-27
2023/07/08 05:18:03;;;;;;;7.32;4.78;;;;;;;;;;5069873;28;20221;-28
2023/07/08 05:20:30;;;;;;;8.63;4.50;;;;;;;;;;5060729;28;20300;-28
2023/07/08 05:22:58;;;;;;;8.10;4.55;;;;;;;;;;5070682;28;20216;-26
2023/07/08 05:25:27;;;;;;;7.45;4.80;;;;;;;;;;5069127;28;20296;-29
2023/07/08 05:27:54;;;;;;;7.60;4.65;;;;;;;;;;5068777;28;20320;-29
2023/07/08 05:30:22;;;;;;;6.90;5.43;;;;;;;;;;5072506;28;20214;-26
2023/07/08 05:32:49;;;;;;;7.63;4.38;;;;;;;;;;5068416;28;20209;-28
2023/07/08 05:35:16;;;;;;;9.07;4.82;;;;;;;;;;5064432;28;20206;-29
2023/07/08 05:37:46;;;;;;;7.18;4.95;;;;;;;;;;5069580;28;20705;-30
2023/07/08 05:40:14;;;;;;;5.95;4.63;;;;;;;;;;5055645;28;20215;-29
2023/07/08 05:42:42;;;;;;;5.97;4.95;;;;;;;;;;5056886;28;20219;-29
2023/07/08 05:45:11;;;;;;;9.63;4.60;;;;;;;;;;5069849;28;20300;-27
2023/07/08 05:47:39;;;;;;;6.80;4.90;;;;;;;;;;5068915;28;20302;-26
2023/07/08 05:50:07;;;;;;;8.90;5.53;;;;;;;;;;5067680;28;20207;-25
2023/07/08 05:52:34;;;;;;;7.88;4.60;;;;;;;;;;5064020;28;20688;-26
2023/07/08 05:55:01;;;;;;;8.63;4.80;;;;;;;;;;5069745;28;20199;-27
2023/07/08 05:57:28;;;;;;;6.45;4.72;;;;;;;;;;5068609;28;20223;-30
2023/07/08 05:59:57;;;;;;;6.30;4.80;;;;;;;;;;5053389;28;20210;-29
2023/07/08 06:02:25;;;;;;;7.10;4.63;;;;;;;;;;5066050;28;20210;-28
2023/07/08 06:04:52;;;;;;;6.35;4.40;;;;;;;;;;5068956;28;20206;-28
2023/07/08 06:07:20;;;;;;;9.45;5.22;;;;;;;;;;5055229;28;20491;-29
2023/07/08 06:09:47;;;;;;;5.95;4.38;;;;;;;;;;5056151;28;20209;-31
2023/07/08 06:12:14;;;;;;;5.50;4.82;;;;;;;;;;5060856;28;20208;-29
2023/07/08 06:14:41;;;;;;;4.93;4.43;;;;;;;;;;5069226;28;20194;-28
2023/07/08 06:17:10;;;;;;;8.23;4.88;;;;;;;;;;5068493;28;20230;-27
2023/07/08 06:19:37;;;;;;;6.40;5.32;;;;;;;;;;5054612;28;20277;-29
2023/07/08 06:22:04;;;;;;;5.03;4.32;;;;;;;;;;5070104;28;20210;-27
2023/07/08 06:24:32;;;;;;;8.98;4.70;;;;;;;;;;5068738;28;20294;-28
2023/07/08 06:26:59;;;;;;;6.90;4.72;;;;;;;;;;5062510;28;20204;-31
2023/07/08 06:29:27;;;;;;;7.15;4.25;;;;;;;;;;5069853;28;20252;-30
2023/07/08 06:31:54;;;;;;;7.43;4.78;;;;;;;;;;5069799;28;20207;-31
2023/07/08 06:34:23;;;;;;;6.25;5.10;;;;;;;;;;5057531;28;20209;-29
2023/07/08 06:36:51;;;;;;;5.22;4.28;;;;;;;;;;5069134;28;20238;-30
2023/07/08 06:39:18;;;;;;;6.70;5.10;;;;;;;;;;5066429;28;20228;-28
2023/07/08 06:41:45;;;;;;;8.18;5.00;;;;;;;;;;5059977;28;20208;-28
2023/07/08 06:44:12;;;;;;;7.43;5.07;;;;;;;;;;5063336;28;20196;-31
2023/07/08 06:46:40;;;;;;;10.50;5.15;;;;;;;;;;5069747;28;20556;-27
2023/07/08 06:49:08;;;;;;;7.20;4.53;;;;;;;;;;5064145;28;20220;-29
2023/07/08 06:51:37;;;;;;;8.40;5.68;;;;;;;;;;5069384;28;20238;-28
2023/07/08 06:54:11;;;;;;;6.30;4.80;;;;;;;;;;5063561;28;20208;-30
2023/07/08 06:56:39;;;;;;;9.57;5.00;;;;;;;;;;5065796;28;20239;-30
2023/07/08 06:59:07;;;;;;;8.60;5.38;;;;;;;;;;5072916;28;20244;-30
2023/07/08 07:01:34;;;;;;;7.70;5.50;;;;;;;;;;5073563;28;20212;-27
2023/07/08 07:04:01;;;;;;;7.10;4.72;;;;;;;;;;5063927;28;20207;-29
2023/07/08 07:06:28;;;;;;;7.50;5.07;;;;;;;;;;5071347;28;20213;-28
2023/07/08 07:08:56;;;;;;;6.70;4.80;;;;;;;;;;5073402;28;20228;-28
2023/07/08 07:11:24;;;;;;;10.15;5.38;;;;;;;;;;5059641;28;20211;-28
2023/07/08 07:13:51;;;;;;;10.73;5.32;;;;;;;;;;5072632;28;20203;-33
2023/07/08 07:16:18;;;;;;;7.30;4.95;;;;;;;;;;5073038;28;20226;-31
2023/07/08 07:18:45;;;;;;;10.10;5.35;;;;;;;;;;5071334;28;20231;-28
2023/07/08 07:21:12;;;;;;;7.90;5.05;;;;;;;;;;5069049;28;20204;-32
2023/07/08 07:23:40;;;;;;;8.48;5.53;;;;;;;;;;5059967;28;20211;-31
2023/07/08 07:26:08;;;;;;;7.30;4.90;;;;;;;;;;5065917;28;20200;-30
2023/07/08 07:28:35;;;;;;;9.27;5.45;;;;;;;;;;5072761;28;20227;-30
2023/07/08 07:31:03;;;;;;;7.60;5.53;;;;;;;;;;5054709;28;20306;-28
2023/07/08 07:33:30;;;;;;;6.82;5.32;;;;;;;;;;5056584;28;20209;-30
2023/07/08 07:35:57;;;;;;;7.30;5.07;;;;;;;;;;5067793;28;20448;-29
2023/07/08 07:38:28;;;;;;;6.65;4.80;;;;;;;;;;5073403;28;20282;-28
2023/07/08 07:40:56;;;;;;;7.70;5.93;;;;;;;;;;5064496;28;20208;-30
2023/07/08 07:43:24;;;;;;;6.65;4.88;;;;;;;;;;5071728;28;20213;-28
2023/07/08 07:45:52;;;;;;;10.88;6.90;;;;;;;;;;5072458;28;20290;-29
2023/07/08 07:48:19;;;;;;;8.98;5.05;;;;;;;;;;5067924;28;20782;-29
2023/07/08 07:50:47;;;;;;;6.15;4.45;;;;;;;;;;5064902;28;20210;-31
2023/07/08 07:53:15;;;;;;;9.13;4.85;;;;;;;;;;5072250;28;20209;-29
2023/07/08 07:55:42;;;;;;;6.25;4.43;;;;;;;;;;5066859;28;20206;-32
2023/07/08 07:58:11;;;;;;;9.68;4.55;;;;;;;;;;5071411;28;20603;-28
2023/07/08 08:00:39;;;;;;;7.20;4.32;;;;;;;;;;5072046;28;20299;-28
2023/07/08 08:03:06;;;;;;;10.45;5.25;;;;;;;;;;5069194;28;20209;-28
2023/07/08 08:05:34;;;;;;;6.03;4.80;;;;;;;;;;5064956;28;20210;-30
2023/07/08 08:08:03;;;;;;;6.28;4.22;;;;;;;;;;5063820;28;20230;-32
2023/07/08 08:10:30;;;;;;;11.40;5.35;;;;;;;;;;5064716;28;20205;-32
2023/07/08 08:12:58;;;;;;;6.40;4.68;;;;;;;;;;5070507;28;20206;-28
2023/07/08 08:15:25;;;;;;;6.45;4.40;;;;;;;;;;5072036;28;20209;-33
2023/07/08 08:17:53;;;;;;;5.70;4.57;;;;;;;;;;5068507;28;20237;-27
2023/07/08 08:20:21;;;;;;;5.43;4.35;;;;;;;;;;5066287;28;20210;-32
2023/07/08 08:22:48;;;;;;;7.25;4.50;;;;;;;;;;5070714;28;20221;-30
2023/07/08 08:25:15;;;;;;;7.88;4.82;;;;;;;;;;5061599;28;20207;-27
2023/07/08 08:27:43;;;;;;;6.15;4.88;;;;;;;;;;5064864;28;20623;-29
2023/07/08 08:30:11;;;;;;;12.32;4.55;;;;;;;;;;5064890;28;20205;-32
2023/07/08 08:32:38;;;;;;;7.05;4.70;;;;;;;;;;5065463;28;20207;-30
2023/07/08 08:35:07;;;;;;;6.75;4.15;;;;;;;;;;5070546;28;20203;-27
2023/07/08 08:37:34;;;;;;;10.23;4.75;;;;;;;;;;5069732;28;20222;-29
2023/07/08 08:40:02;;;;;;;7.13;4.53;;;;;;;;;;5063978;28;20203;-27
2023/07/08 08:42:32;;;;;;;6.90;4.32;;;;;;;;;;5070126;28;20223;-31
2023/07/08 08:45:00;;;;;;;6.57;4.38;;;;;;;;;;5071023;28;20202;-32
2023/07/08 08:47:33;;;;;;;8.48;4.40;;;;;;;;;;5070147;28;20195;-33
2023/07/08 08:50:03;;;;;;;7.45;4.45;;;;;;;;;;5056751;28;20212;-31
2023/07/08 08:52:31;;;;;;;9.32;4.43;;;;;;;;;;5066758;28;20210;-29
2023/07/08 08:54:59;;;;;;;5.82;4.50;;;;;;;;;;5058688;28;20239;-28
2023/07/08 08:57:33;;;;;;;6.50;3.85;;;;;;;;;;5067788;28;20219;-29
2023/07/08 09:00:01;;;;;;;5.65;4.28;;;;;;;;;;5071106;28;20206;-30
2023/07/08 09:02:32;;;;;;;6.80;4.13;;;;;;;;;;5070787;28;20213;-30
2023/07/08 09:05:03;;;;;;;6.70;4.22;;;;;;;;;;5060620;28;20224;-32
2023/07/08 09:07:33;;;;;;;5.72;3.95;;;;;;;;;;5065698;28;20215;-29
2023/07/08 09:10:03;;;;;;;5.85;4.07;;;;;;;;;;5061297;28;20213;-28
2023/07/08 09:12:31;;;;;;;6.07;4.35;;;;;;;;;;5065911;28;20269;-31
2023/07/08 09:14:58;;;;;;;5.20;4.13;;;;;;;;;;5069968;28;20205;-32
2023/07/08 09:17:31;;;;;;;11.55;4.90;;;;;;;;;;5065409;28;20228;-29
2023/07/08 09:20:02;;;;;;;9.98;4.60;;;;;;;;;;5069751;28;20200;-29
2023/07/08 09:22:35;;;;;;;4.72;3.55;;;;;;;;;;5070340;28;20217;-29
2023/07/08 09:25:05;;;;;;;8.38;3.95;;;;;;;;;;5064939;28;20211;-30
2023/07/08 09:27:32;;;;;;;6.18;3.95;;;;;;;;;;5068436;28;20208;-30
2023/07/08 09:29:59;;;;;;;5.13;3.75;;;;;;;;;;5070330;28;20205;-31
2023/07/08 09:32:28;;;;;;;6.28;3.80;;;;;;;;;;5071002;28;20207;-32
2023/07/08 09:34:55;;;;;;;4.93;3.55;;;;;;;;;;5065735;28;20214;-31
2023/07/08 09:37:24;;;;;;;4.40;3.55;;;;;;;;;;5064900;28;20215;-29
2023/07/08 09:39:52;;;;;;;6.93;4.10;;;;;;;;;;5064107;28;20199;-30
2023/07/08 09:42:20;;;;;;;5.43;3.45;;;;;;;;;;5064401;28;20216;-31
2023/07/08 09:44:47;;;;;;;4.47;3.42;;;;;;;;;;5070379;28;20299;-33
2023/07/08 09:47:24;;;;;;;5.88;3.22;;;;;;;;;;5069885;28;20197;-31
2023/07/08 09:49:53;;;;;;;7.00;3.90;;;;;;;;;;5156682;22;20320;-28
2023/07/08 09:52:20;;;;;;;5.72;3.72;;;;;;;;;;5090375;28;20199;-30
2023/07/08 09:54:48;;;;;;;7.95;3.60;;;;;;;;;;5086645;28;20203;-28
2023/07/08 09:57:21;;;;;;;7.57;3.50;;;;;;;;;;5075044;28;20231;-30
2023/07/08 09:59:48;;;;;;;3.83;3.22;;;;;;;;;;5080339;28;20214;-29
2023/07/08 10:02:26;;;;;;;4.28;3.33;;;;;;;;;;5090679;28;20215;-28
2023/07/08 10:04:54;;;;;;;4.20;3.28;;;;;;;;;;5073982;28;20530;-30
2023/07/08 10:07:21;;;;;;;5.53;3.22;;;;;;;;;;5067346;28;20218;-30
2023/07/08 10:09:50;;;;;;;3.38;3.08;;;;;;;;;;5067311;28;20201;-30
2023/07/08 10:12:19;;;;;;;5.03;3.08;;;;;;;;;;5072553;28;20206;-31
2023/07/08 10:14:49;;;;;;;5.15;3.25;;;;;;;;;;5081669;28;20230;-33
2023/07/08 10:17:17;;;;;;;4.05;3.00;;;;;;;;;;5073419;28;20216;-31
2023/07/08 10:19:45;;;;;;;7.35;3.58;;;;;;;;;;5059955;28;20306;-28
2023/07/08 10:22:17;;;;;;;6.00;3.25;;;;;;;;;;5074654;28;20207;-31
2023/07/08 10:24:53;;;;;;;5.22;2.90;;;;;;;;;;5080090;28;20288;-28
2023/07/08 10:27:23;;;;;;;6.43;2.97;;;;;;;;;;5071928;28;20206;-28
2023/07/08 10:29:54;;;;;;;3.17;2.80;;;;;;;;;;5079722;28;20194;-30
2023/07/08 10:32:26;;;;;;;3.42;2.75;;;;;;;;;;5096281;28;20290;-28
2023/07/08 10:34:57;;;;;;;4.45;2.85;;;;;;;;;;5079181;28;20209;-29
2023/07/08 10:37:27;;;;;;;4.80;2.60;;;;;;;;;;5079938;28;20227;-28
2023/07/08 10:40:02;;;;;;;6.35;2.88;;;;;;;;;;5072622;28;20301;-30
2023/07/08 10:42:41;;;;;;;3.13;2.67;;;;;;;;;;5073981;28;20234;-30
2023/07/08 10:45:12;;;;;;;5.13;3.17;;;;;;;;;;5086790;28;20221;-31
2023/07/08 10:47:46;;;;;;;3.38;2.50;;;;;;;;;;5081527;28;20204;-28
2023/07/08 10:50:28;;;;;;;3.03;2.28;;;;;;;;;;5071037;28;20307;-30
2023/07/08 10:53:00;;;;;;;2.88;2.25;;;;;;;;;;5070385;28;20621;-28
2023/07/08 10:55:34;;;;;;;4.15;2.00;;;;;;;;;;5068464;28;20201;-30
2023/07/08 10:58:15;;;;;;;2.55;2.35;;;;;;;;;;5082452;28;20224;-30
2023/07/08 11:00:48;;;;;;;3.95;2.20;;;;;;;;;;5076018;28;20291;-28
2023/07/08 11:03:28;;;;;;;2.95;1.75;;;;;;;;;;5069590;28;20284;-31
2023/07/08 11:05:59;;;;;;;1.80;1.48;;;;;;;;;;5076248;28;20209;-31
2023/07/08 11:08:28;;;;;;;2.03;1.60;;;;;;;;;;5082527;28;20230;-29
2023/07/08 11:10:58;;;;;;;5.30;3.13;;;;;;;;;;5073129;28;20214;-32
2023/07/08 11:13:29;;;;;;;4.65;1.95;;;;;;;;;;5080441;28;20266;-29
2023/07/08 11:15:59;;;;;;;2.88;1.85;;;;;;;;;;5092040;28;20200;-28
2023/07/08 11:18:31;;;;;;;2.38;1.98;;;;;;;;;;5059571;28;20232;-29
2023/07/08 11:21:01;;;;;;;6.75;2.22;;;;;;;;;;5066861;28;20547;-28
2023/07/08 11:23:34;;;;;;;3.22;2.15;;;;;;;;;;5083966;28;20207;-27
2023/07/08 11:26:06;;;;;;;2.00;1.60;;;;;;;;;;5067409;28;20213;-27
2023/07/08 11:28:35;;;;;;;1.67;1.55;;;;;;;;;;5079514;28;20235;-29
2023/07/08 11:31:02;;;;;;;2.78;1.63;;;;;;;;;;5058372;28;20201;-30
2023/07/08 11:33:31;;;;;;;1.67;1.58;;;;;;;;;;5064007;28;20197;-28
2023/07/08 11:35:59;;;;;;;3.13;1.75;;;;;;;;;;5068175;28;20252;-29
2023/07/08 11:38:26;;;;;;;3.15;1.38;;;;;;;;;;5068332;28;20661;-27
2023/07/08 11:40:56;;;;;;;2.78;1.83;;;;;;;;;;5057401;28;20209;-31
2023/07/08 11:43:24;;;;;;;1.52;1.42;;;;;;;;;;5066461;28;20208;-31
2023/07/08 11:45:55;;;;;;;1.63;1.52;;;;;;;;;;5068143;28;20210;-29
2023/07/08 11:48:24;;;;;;;1.40;1.30;;;;;;;;;;5064186;28;20277;-28
2023/07/08 11:50:52;;;;;;;4.68;1.55;;;;;;;;;;5066120;28;20569;-28
2023/07/08 11:53:34;;;;;;;4.82;1.75;;;;;;;;;;5069978;28;20523;-29
2023/07/08 11:56:04;;;;;;;2.17;1.75;;;;;;;;;;5058423;28;20193;-30
2023/07/08 11:58:32;;;;;;;2.42;1.52;;;;;;;;;;5074103;28;20237;-29
2023/07/08 12:01:01;;;;;;;2.45;1.60;;;;;;;;;;5094453;28;20250;-29
2023/07/08 12:03:35;;;;;;;3.00;1.70;;;;;;;;;;5070387;28;20208;-31
2023/07/08 12:06:06;;;;;;;2.72;1.77;;;;;;;;;;5064575;28;20287;-29
2023/07/08 12:08:37;;;;;;;1.88;1.77;;;;;;;;;;5073881;28;20225;-29
2023/07/08 12:11:05;;;;;;;1.60;1.48;;;;;;;;;;5062097;28;20216;-32
2023/07/08 12:13:32;;;;;;;3.55;1.83;;;;;;;;;;5067066;28;20209;-28
2023/07/08 12:16:00;;;;;;;2.08;1.65;;;;;;;;;;5073761;28;20193;-27
2023/07/08 12:18:33;;;;;;;5.95;1.90;;;;;;;;;;5073441;28;20279;-30
2023/07/08 12:21:01;;;;;;;3.53;1.60;;;;;;;;;;5067675;28;20196;-31
2023/07/08 12:23:29;;;;;;;1.70;1.60;;;;;;;;;;5066167;28;20201;-30
2023/07/08 12:25:57;;;;;;;2.05;1.52;;;;;;;;;;5063920;28;20209;-32
2023/07/08 12:28:25;;;;;;;2.03;1.20;;;;;;;;;;5087043;28;20221;-30
2023/07/08 12:30:54;;;;;;;1.67;1.55;;;;;;;;;;5089697;28;20292;-28
2023/07/08 12:33:25;;;;;;;2.47;1.42;;;;;;;;;;5058430;28;20235;-28
2023/07/08 12:35:52;;;;;;;3.75;1.50;;;;;;;;;;5077654;28;20295;-28
2023/07/08 12:38:22;;;;;;;2.22;1.40;;;;;;;;;;5093346;28;20235;-28
2023/07/08 12:40:49;;;;;;;3.50;1.75;;;;;;;;;;5071664;28;20236;-29
2023/07/08 12:43:17;;;;;;;2.83;1.65;;;;;;;;;;5079996;28;20263;-28
2023/07/08 12:45:44;;;;;;;3.05;1.83;;;;;;;;;;5091693;28;20200;-31
2023/07/08 12:48:11;;;;;;;2.53;2.00;;;;;;;;;;5072526;28;20233;-30
2023/07/08 12:50:40;;;;;;;2.70;1.73;;;;;;;;;;5072577;28;20202;-31
2023/07/08 12:53:09;;;;;;;3.60;1.90;;;;;;;;;;5089083;28;20207;-31
2023/07/08 12:55:42;;;;;;;3.60;1.58;;;;;;;;;;5069440;28;20232;-28
2023/07/08 12:58:10;;;;;;;2.50;1.88;;;;;;;;;;5076823;28;20227;-31
2023/07/08 13:00:40;;;;;;;2.00;1.70;;;;;;;;;;5085392;28;20202;-31
2023/07/08 13:03:09;;;;;;;5.65;1.80;;;;;;;;;;5074076;28;20269;-30
2023/07/08 13:05:37;;;;;;;2.13;1.70;;;;;;;;;;5077859;28;20211;-30
2023/07/08 13:08:06;;;;;;;1.73;1.63;;;;;;;;;;5083742;28;20672;-31
2023/07/08 13:10:35;;;;;;;2.88;1.60;;;;;;;;;;5071598;28;20213;-29
2023/07/08 13:13:04;;;;;;;2.30;1.80;;;;;;;;;;5076188;28;20205;-30
2023/07/08 13:15:33;;;;;;;2.30;1.70;;;;;;;;;;5087370;28;20211;-31
2023/07/08 13:18:01;;;;;;;3.78;1.83;;;;;;;;;;5081656;28;20270;-30
2023/07/08 13:20:28;;;;;;;3.45;1.70;;;;;;;;;;5067138;28;20198;-31
2023/07/08 13:22:56;;;;;;;2.75;1.40;;;;;;;;;;5065464;28;20663;-29
2023/07/08 13:25:29;;;;;;;3.22;1.80;;;;;;;;;;5065671;28;20205;-30
2023/07/08 13:27:57;;;;;;;6.30;2.17;;;;;;;;;;5071717;28;20258;-29
2023/07/08 13:30:26;;;;;;;6.60;2.80;;;;;;;;;;5083371;28;20342;-33
2023/07/08 13:32:53;;;;;;;3.97;1.85;;;;;;;;;;5068155;28;20205;-30
2023/07/08 13:35:24;;;;;;;2.28;1.80;;;;;;;;;;5082961;28;20250;-32
2023/07/08 13:37:52;;;;;;;3.45;1.80;;;;;;;;;;5081956;28;20230;-31
2023/07/08 13:40:19;;;;;;;2.42;1.75;;;;;;;;;;5079391;28;20206;-32
2023/07/08 13:42:52;;;;;;;2.53;2.00;;;;;;;;;;5067697;28;20663;-32
2023/07/08 13:45:23;;;;;;;4.78;1.85;;;;;;;;;;5070834;28;20212;-31
2023/07/08 13:47:59;;;;;;;2.67;2.00;;;;;;;;;;5056215;28;20232;-29
2023/07/08 13:50:29;;;;;;;2.75;1.90;;;;;;;;;;5070552;28;20207;-28
2023/07/08 13:52:57;;;;;;;5.75;2.13;;;;;;;;;;5070214;28;20201;-29
2023/07/08 13:55:24;;;;;;;2.35;2.05;;;;;;;;;;5065999;28;20213;-28
2023/07/08 13:57:59;;;;;;;5.55;2.05;;;;;;;;;;5072141;28;20228;-30
2023/07/08 14:00:26;;;;;;;4.32;2.15;;;;;;;;;;5086107;28;20201;-29
2023/07/08 14:02:54;;;;;;;3.42;2.03;;;;;;;;;;5069051;28;20201;-28
2023/07/08 14:05:21;;;;;;;3.20;2.28;;;;;;;;;;5060337;28;20287;-29
2023/07/08 14:07:49;;;;;;;5.25;1.75;;;;;;;;;;5083100;28;20712;-32
2023/07/08 14:10:16;;;;;;;2.58;1.65;;;;;;;;;;5082910;28;20201;-29
2023/07/08 14:12:43;;;;;;;5.57;2.03;;;;;;;;;;5079599;28;20476;-28
2023/07/08 14:15:12;;;;;;;2.33;1.98;;;;;;;;;;5096684;28;20204;-30
2023/07/08 14:17:40;;;;;;;3.58;2.30;;;;;;;;;;5069359;28;20201;-29
2023/07/08 14:20:11;;;;;;;3.88;2.03;;;;;;;;;;5063861;28;20225;-32
2023/07/08 14:22:38;;;;;;;4.13;2.00;;;;;;;;;;5083304;28;20566;-27
2023/07/08 14:25:07;;;;;;;3.70;2.53;;;;;;;;;;5077107;28;20311;-31
2023/07/08 14:27:34;;;;;;;4.18;1.92;;;;;;;;;;5065916;28;20209;-31
2023/07/08 14:30:02;;;;;;;2.78;1.85;;;;;;;;;;5069308;28;20257;-30
2023/07/08 14:32:31;;;;;;;2.80;2.45;;;;;;;;;;5075448;28;20494;-28
2023/07/08 14:35:03;;;;;;;4.40;1.98;;;;;;;;;;5066621;28;20212;-29
2023/07/08 14:37:30;;;;;;;3.25;2.15;;;;;;;;;;5062532;28;20264;-29
2023/07/08 14:39:57;;;;;;;4.72;1.92;;;;;;;;;;5070999;28;20227;-31
2023/07/08 14:42:27;;;;;;;3.67;1.80;;;;;;;;;;5072155;28;20201;-27
2023/07/08 14:44:54;;;;;;;2.63;2.00;;;;;;;;;;5081847;28;20237;-30
2023/07/08 14:47:21;;;;;;;2.97;2.05;;;;;;;;;;5060533;28;20201;-29
2023/07/08 14:49:50;;;;;;;10.13;2.92;;;;;;;;;;5073197;28;20566;-31
2023/07/08 14:52:17;;;;;;;3.08;2.20;;;;;;;;;;5068398;28;20209;-27